sensor_id;sensor_type;location;lat;lon;timestamp;pressure;altitude;pressure_sealevel;temperature;humidity
59475;BME280;45288;51.136;16.928;2023-11-21T00:01:31;99338.22;;;9.04;100.00
59475;BME280;45288;51.136;16.928;2023-11-21T00:03:58;99334.31;;;8.87;100.00
59475;BME280;45288;51.136;16.928;2023-11-21T00:06:26;99336.56;;;8.80;100.00
59475;BME280;45288;51.136;16.928;2023-11-21T00:08:52;99340.63;;;8.84;100.00
59475;BME280;45288;51.136;16.928;2023-11-21T00:11:17;99337.88;;;8.74;100.00
59475;BME280;45288;51.136;16.928;2023-11-21T00:13:43;99327.03;;;8.90;100.00
59475;BME280;45288;51.136;16.928;2023-11-21T00:16:09;99334.97;;;9.00;100.00
59475;BME280;45288;51.136;16.928;2023-11-21T00:18:35;99333.94;;;8.91;100.00
59475;BME280;45288;51.136;16.928;2023-11-21T00:21:01;99340.50;;;8.86;100.00
59475;BME280;45288;51.136;16.928;2023-11-21T00:23:27;99344.66;;;8.88;100.00
59475;BME280;45288;51.136;16.928;2023-11-21T00:25:52;99354.19;;;8.67;100.00
59475;BME280;45288;51.136;16.928;2023-11-21T00:28:18;99346.56;;;8.75;100.00
59475;BME280;45288;51.136;16.928;2023-11-21T00:30:44;99358.44;;;8.90;100.00
59475;BME280;45288;51.136;16.928;2023-11-21T00:33:10;99349.66;;;8.91;100.00
59475;BME280;45288;51.136;16.928;2023-11-21T00:35:36;99355.50;;;8.84;100.00
59475;BME280;45288;51.136;16.928;2023-11-21T00:38:02;99358.72;;;8.76;100.00
59475;BME280;45288;51.136;16.928;2023-11-21T00:40:29;99354.78;;;8.82;100.00
59475;BME280;45288;51.136;16.928;2023-11-21T00:42:54;99351.34;;;8.70;100.00
59475;BME280;45288;51.136;16.928;2023-11-21T00:45:21;99351.78;;;8.75;100.00
59475;BME280;45288;51.136;16.928;2023-11-21T00:47:47;99353.25;;;8.68;100.00
59475;BME280;45288;51.136;16.928;2023-11-21T00:50:13;99350.28;;;8.72;100.00
59475;BME280;45288;51.136;16.928;2023-11-21T00:52:39;99350.38;;;8.82;100.00
59475;BME280;45288;51.136;16.928;2023-11-21T00:55:05;99355.94;;;8.78;100.00
59475;BME280;45288;51.136;16.928;2023-11-21T00:57:33;99347.66;;;8.72;100.00
59475;BME280;45288;51.136;16.928;2023-11-21T01:00:00;99352.50;;;8.77;100.00
59475;BME280;45288;51.136;16.928;2023-11-21T01:02:26;99342.97;;;8.87;100.00
59475;BME280;45288;51.136;16.928;2023-11-21T01:04:52;99347.03;;;8.80;100.00
59475;BME280;45288;51.136;16.928;2023-11-21T01:07:19;99350.13;;;8.85;100.00
59475;BME280;45288;51.136;16.928;2023-11-21T01:09:46;99353.34;;;8.89;100.00
59475;BME280;45288;51.136;16.928;2023-11-21T01:12:11;99350.13;;;8.85;100.00
59475;BME280;45288;51.136;16.928;2023-11-21T01:14:37;99351.78;;;8.75;100.00
59475;BME280;45288;51.136;16.928;2023-11-21T01:17:03;99356.66;;;8.80;100.00
59475;BME280;45288;51.136;16.928;2023-11-21T01:19:31;99358.34;;;8.69;100.00
59475;BME280;45288;51.136;16.928;2023-11-21T01:21:57;99361.56;;;8.73;100.00
59475;BME280;45288;51.136;16.928;2023-11-21T01:24:23;99363.09;;;8.64;100.00
59475;BME280;45288;51.136;16.928;2023-11-21T01:26:49;99354.66;;;8.72;100.00
59475;BME280;45288;51.136;16.928;2023-11-21T01:29:15;99360.75;;;8.72;100.00
59475;BME280;45288;51.136;16.928;2023-11-21T01:31:41;99360.84;;;8.71;100.00
59475;BME280;45288;51.136;16.928;2023-11-21T01:34:07;99355.72;;;8.69;100.00
59475;BME280;45288;51.136;16.928;2023-11-21T01:36:33;99357.88;;;8.64;100.00
59475;BME280;45288;51.136;16.928;2023-11-21T01:38:59;99358.59;;;8.66;100.00
59475;BME280;45288;51.136;16.928;2023-11-21T01:41:26;99362.03;;;8.67;100.00
59475;BME280;45288;51.136;16.928;2023-11-21T01:43:52;99371.91;;;8.63;100.00
59475;BME280;45288;51.136;16.928;2023-11-21T01:46:20;99364.19;;;8.62;100.00
59475;BME280;45288;51.136;16.928;2023-11-21T01:48:48;99362.66;;;8.70;100.00
59475;BME280;45288;51.136;16.928;2023-11-21T01:51:15;99367.16;;;8.68;100.00
59475;BME280;45288;51.136;16.928;2023-11-21T01:53:41;99375.97;;;8.67;100.00
59475;BME280;45288;51.136;16.928;2023-11-21T01:56:08;99366.19;;;8.69;100.00
59475;BME280;45288;51.136;16.928;2023-11-21T01:58:35;99368.47;;;8.63;100.00
59475;BME280;45288;51.136;16.928;2023-11-21T02:01:02;99368.84;;;8.58;100.00
59475;BME280;45288;51.136;16.928;2023-11-21T02:03:28;99373.22;;;8.69;100.00
59475;BME280;45288;51.136;16.928;2023-11-21T02:05:54;99377.13;;;8.97;100.00
59475;BME280;45288;51.136;16.928;2023-11-21T02:08:19;99370.84;;;8.88;100.00
59475;BME280;45288;51.136;16.928;2023-11-21T02:10:45;99379.66;;;8.76;100.00
59475;BME280;45288;51.136;16.928;2023-11-21T02:13:11;99381.78;;;8.71;100.00
59475;BME280;45288;51.136;16.928;2023-11-21T02:15:38;99374.38;;;8.87;100.00
59475;BME280;45288;51.136;16.928;2023-11-21T02:18:04;99370.84;;;8.88;100.00
59475;BME280;45288;51.136;16.928;2023-11-21T02:20:31;99380.81;;;8.94;100.00
59475;BME280;45288;51.136;16.928;2023-11-21T02:23:00;99379.25;;;9.03;100.00
59475;BME280;45288;51.136;16.928;2023-11-21T02:25:28;99377.00;;;8.87;100.00
59475;BME280;45288;51.136;16.928;2023-11-21T02:27:55;99379.16;;;8.93;100.00
59475;BME280;45288;51.136;16.928;2023-11-21T02:30:22;99381.28;;;9.00;100.00
59475;BME280;45288;51.136;16.928;2023-11-21T02:32:51;99376.31;;;8.74;100.00
59475;BME280;45288;51.136;16.928;2023-11-21T02:35:23;99376.06;;;8.88;100.00
59475;BME280;45288;51.136;16.928;2023-11-21T02:37:49;99381.44;;;8.76;100.00
59475;BME280;45288;51.136;16.928;2023-11-21T02:40:15;99376.53;;;8.82;100.00
59475;BME280;45288;51.136;16.928;2023-11-21T02:42:44;99379.75;;;8.86;100.00
59475;BME280;45288;51.136;16.928;2023-11-21T02:45:10;99376.75;;;8.90;100.00
59475;BME280;45288;51.136;16.928;2023-11-21T02:47:39;99382.38;;;8.86;100.00
59475;BME280;45288;51.136;16.928;2023-11-21T02:50:05;99379.38;;;8.90;100.00
59475;BME280;45288;51.136;16.928;2023-11-21T02:52:34;99379.03;;;8.84;100.00
59475;BME280;45288;51.136;16.928;2023-11-21T02:55:01;99381.41;;;8.87;100.00
59475;BME280;45288;51.136;16.928;2023-11-21T02:57:27;99380.22;;;8.80;100.00
59475;BME280;45288;51.136;16.928;2023-11-21T02:59:53;99389.28;;;8.76;100.00
59475;BME280;45288;51.136;16.928;2023-11-21T03:02:20;99384.63;;;8.79;100.00
59475;BME280;45288;51.136;16.928;2023-11-21T03:04:46;99390.59;;;8.81;100.00
59475;BME280;45288;51.136;16.928;2023-11-21T03:07:14;99387.84;;;8.83;100.00
59475;BME280;45288;51.136;16.928;2023-11-21T03:09:40;99391.78;;;8.88;100.00
59475;BME280;45288;51.136;16.928;2023-11-21T03:12:06;99392.13;;;8.84;100.00
59475;BME280;45288;51.136;16.928;2023-11-21T03:14:32;99397.00;;;9.00;100.00
59475;BME280;45288;51.136;16.928;2023-11-21T03:16:59;99394.50;;;8.87;100.00
59475;BME280;45288;51.136;16.928;2023-11-21T03:19:24;99387.00;;;8.93;100.00
59475;BME280;45288;51.136;16.928;2023-11-21T03:21:50;99398.66;;;8.89;100.00
59475;BME280;45288;51.136;16.928;2023-11-21T03:24:19;99393.06;;;8.94;100.00
59475;BME280;45288;51.136;16.928;2023-11-21T03:26:46;99399.97;;;8.95;100.00
59475;BME280;45288;51.136;16.928;2023-11-21T03:29:17;99385.09;;;8.84;100.00
59475;BME280;45288;51.136;16.928;2023-11-21T03:31:43;99392.25;;;8.93;100.00
59475;BME280;45288;51.136;16.928;2023-11-21T03:34:23;99399.09;;;9.06;100.00
59475;BME280;45288;51.136;16.928;2023-11-21T03:36:49;99401.78;;;8.83;100.00
59475;BME280;45288;51.136;16.928;2023-11-21T03:39:15;99399.84;;;8.85;100.00
59475;BME280;45288;51.136;16.928;2023-11-21T03:41:40;99396.78;;;8.91;100.00
59475;BME280;45288;51.136;16.928;2023-11-21T03:44:06;99398.91;;;8.86;100.00
59475;BME280;45288;51.136;16.928;2023-11-21T03:46:32;99407.69;;;8.85;100.00
59475;BME280;45288;51.136;16.928;2023-11-21T03:48:58;99398.91;;;8.75;100.00
59475;BME280;45288;51.136;16.928;2023-11-21T03:51:23;99399.38;;;8.80;100.00
59475;BME280;45288;51.136;16.928;2023-11-21T03:53:49;99402.72;;;8.71;100.00
59475;BME280;45288;51.136;16.928;2023-11-21T03:56:15;99398.66;;;8.67;100.00
59475;BME280;45288;51.136;16.928;2023-11-21T03:58:41;99403.91;;;8.67;100.00
59475;BME280;45288;51.136;16.928;2023-11-21T04:01:07;99400.81;;;8.73;100.00
59475;BME280;45288;51.136;16.928;2023-11-21T04:03:32;99400.13;;;8.60;100.00
59475;BME280;45288;51.136;16.928;2023-11-21T04:05:58;99405.56;;;8.57;100.00
59475;BME280;45288;51.136;16.928;2023-11-21T04:08:24;99412.00;;;8.64;100.00
59475;BME280;45288;51.136;16.928;2023-11-21T04:10:50;99411.28;;;8.73;100.00
59475;BME280;45288;51.136;16.928;2023-11-21T04:13:16;99405.56;;;8.79;100.00
59475;BME280;45288;51.136;16.928;2023-11-21T04:15:42;99407.22;;;8.80;100.00
59475;BME280;45288;51.136;16.928;2023-11-21T04:18:08;99411.63;;;8.80;100.00
59475;BME280;45288;51.136;16.928;2023-11-21T04:20:33;99403.78;;;8.68;100.00
59475;BME280;45288;51.136;16.928;2023-11-21T04:22:59;99404.75;;;8.67;100.00
59475;BME280;45288;51.136;16.928;2023-11-21T04:25:25;99410.56;;;8.82;100.00
59475;BME280;45288;51.136;16.928;2023-11-21T04:27:51;99414.50;;;8.77;100.00
59475;BME280;45288;51.136;16.928;2023-11-21T04:30:17;99410.22;;;8.64;100.00
59475;BME280;45288;51.136;16.928;2023-11-21T04:32:43;99414.59;;;8.75;100.00
59475;BME280;45288;51.136;16.928;2023-11-21T04:35:09;99418.78;;;8.66;100.00
59475;BME280;45288;51.136;16.928;2023-11-21T04:37:34;99415.09;;;8.69;100.00
59475;BME280;45288;51.136;16.928;2023-11-21T04:40:00;99421.53;;;8.76;100.00
59475;BME280;45288;51.136;16.928;2023-11-21T04:42:26;99432.09;;;8.74;100.00
59475;BME280;45288;51.136;16.928;2023-11-21T04:44:52;99426.50;;;8.79;100.00
59475;BME280;45288;51.136;16.928;2023-11-21T04:47:18;99426.03;;;8.74;100.00
59475;BME280;45288;51.136;16.928;2023-11-21T04:49:46;99428.41;;;8.66;100.00
59475;BME280;45288;51.136;16.928;2023-11-21T04:52:12;99431.16;;;8.76;100.00
59475;BME280;45288;51.136;16.928;2023-11-21T04:54:38;99439.94;;;8.63;100.00
59475;BME280;45288;51.136;16.928;2023-11-21T04:57:05;99440.09;;;8.73;100.00
59475;BME280;45288;51.136;16.928;2023-11-21T04:59:34;99442.59;;;8.86;100.00
59475;BME280;45288;51.136;16.928;2023-11-21T05:01:59;99440.19;;;8.83;100.00
59475;BME280;45288;51.136;16.928;2023-11-21T05:04:28;99445.91;;;8.77;100.00
59475;BME280;45288;51.136;16.928;2023-11-21T05:06:54;99441.25;;;8.69;100.00
59475;BME280;45288;51.136;16.928;2023-11-21T05:09:20;99448.38;;;8.67;100.00
59475;BME280;45288;51.136;16.928;2023-11-21T05:11:47;99442.69;;;8.73;100.00
59475;BME280;45288;51.136;16.928;2023-11-21T05:14:13;99449.09;;;8.69;100.00
59475;BME280;45288;51.136;16.928;2023-11-21T05:16:39;99447.69;;;8.99;100.00
59475;BME280;45288;51.136;16.928;2023-11-21T05:19:05;99448.63;;;8.98;100.00
59475;BME280;45288;51.136;16.928;2023-11-21T05:21:31;99456.38;;;8.99;100.00
59475;BME280;45288;51.136;16.928;2023-11-21T05:24:01;99459.72;;;8.79;100.00
59475;BME280;45288;51.136;16.928;2023-11-21T05:26:27;99453.41;;;8.81;100.00
59475;BME280;45288;51.136;16.928;2023-11-21T05:28:53;99456.13;;;8.80;100.00
59475;BME280;45288;51.136;16.928;2023-11-21T05:31:18;99464.22;;;8.88;100.00
59475;BME280;45288;51.136;16.928;2023-11-21T05:33:44;99452.94;;;8.65;100.00
59475;BME280;45288;51.136;16.928;2023-11-21T05:36:10;99452.44;;;8.71;100.00
59475;BME280;45288;51.136;16.928;2023-11-21T05:38:36;99453.03;;;8.74;100.00
59475;BME280;45288;51.136;16.928;2023-11-21T05:41:03;99456.84;;;8.70;100.00
59475;BME280;45288;51.136;16.928;2023-11-21T05:43:30;99461.97;;;8.72;100.00
59475;BME280;45288;51.136;16.928;2023-11-21T05:45:57;99471.25;;;8.76;100.00
59475;BME280;45288;51.136;16.928;2023-11-21T05:48:23;99463.88;;;8.81;100.00
59475;BME280;45288;51.136;16.928;2023-11-21T05:50:50;99474.34;;;8.70;100.00
59475;BME280;45288;51.136;16.928;2023-11-21T05:53:15;99468.00;;;8.61;100.00
59475;BME280;45288;51.136;16.928;2023-11-21T05:55:42;99478.34;;;8.51;100.00
59475;BME280;45288;51.136;16.928;2023-11-21T05:58:08;99467.78;;;8.64;100.00
59475;BME280;45288;51.136;16.928;2023-11-21T06:00:34;99476.47;;;8.65;100.00
59475;BME280;45288;51.136;16.928;2023-11-21T06:06:29;99466.94;;;8.75;100.00
59475;BME280;45288;51.136;16.928;2023-11-21T06:08:55;99481.00;;;8.63;100.00
59475;BME280;45288;51.136;16.928;2023-11-21T06:11:21;99493.34;;;8.61;100.00
59475;BME280;45288;51.136;16.928;2023-11-21T06:13:46;99482.06;;;8.83;100.00
59475;BME280;45288;51.136;16.928;2023-11-21T06:16:13;99483.88;;;8.93;100.00
59475;BME280;45288;51.136;16.928;2023-11-21T06:18:45;99499.31;;;8.74;100.00
59475;BME280;45288;51.136;16.928;2023-11-21T06:21:11;99500.53;;;8.81;100.00
59475;BME280;45288;51.136;16.928;2023-11-21T06:23:37;99502.06;;;8.72;100.00
59475;BME280;45288;51.136;16.928;2023-11-21T06:26:03;99510.75;;;8.73;100.00
59475;BME280;45288;51.136;16.928;2023-11-21T06:28:30;99512.88;;;8.79;100.00
59475;BME280;45288;51.136;16.928;2023-11-21T06:30:57;99518.41;;;8.99;100.00
59475;BME280;45288;51.136;16.928;2023-11-21T06:33:23;99511.94;;;9.03;100.00
59475;BME280;45288;51.136;16.928;2023-11-21T06:35:51;99524.56;;;8.86;100.00
59475;BME280;45288;51.136;16.928;2023-11-21T06:38:17;99522.03;;;8.73;100.00
59475;BME280;45288;51.136;16.928;2023-11-21T06:40:43;99528.09;;;8.74;100.00
59475;BME280;45288;51.136;16.928;2023-11-21T06:43:09;99523.63;;;8.99;100.00
59475;BME280;45288;51.136;16.928;2023-11-21T06:45:35;99529.41;;;8.80;100.00
59475;BME280;45288;51.136;16.928;2023-11-21T06:48:01;99522.53;;;8.79;100.00
59475;BME280;45288;51.136;16.928;2023-11-21T06:50:27;99538.72;;;8.84;100.00
59475;BME280;45288;51.136;16.928;2023-11-21T06:52:53;99530.75;;;8.97;100.00
59475;BME280;45288;51.136;16.928;2023-11-21T06:55:19;99531.22;;;8.90;100.00
59475;BME280;45288;51.136;16.928;2023-11-21T06:57:45;99535.03;;;8.86;100.00
59475;BME280;45288;51.136;16.928;2023-11-21T07:00:13;99536.72;;;8.99;100.00
59475;BME280;45288;51.136;16.928;2023-11-21T07:02:42;99533.00;;;8.90;100.00
59475;BME280;45288;51.136;16.928;2023-11-21T07:05:07;99539.19;;;8.89;100.00
59475;BME280;45288;51.136;16.928;2023-11-21T07:07:34;99541.22;;;9.08;100.00
59475;BME280;45288;51.136;16.928;2023-11-21T07:10:01;99532.91;;;9.14;100.00
59475;BME280;45288;51.136;16.928;2023-11-21T07:12:30;99539.34;;;8.99;100.00
59475;BME280;45288;51.136;16.928;2023-11-21T07:14:57;99538.97;;;9.03;100.00
59475;BME280;45288;51.136;16.928;2023-11-21T07:17:23;99543.41;;;9.14;100.00
59475;BME280;45288;51.136;16.928;2023-11-21T07:19:49;99549.69;;;9.11;100.00
59475;BME280;45288;51.136;16.928;2023-11-21T07:22:16;99547.44;;;9.29;100.00
59475;BME280;45288;51.136;16.928;2023-11-21T07:24:50;99545.41;;;9.33;100.00
59475;BME280;45288;51.136;16.928;2023-11-21T07:27:19;99548.16;;;9.43;100.00
59475;BME280;45288;51.136;16.928;2023-11-21T07:29:45;99550.50;;;9.34;100.00
59475;BME280;45288;51.136;16.928;2023-11-21T07:32:13;99552.19;;;9.13;100.00
59475;BME280;45288;51.136;16.928;2023-11-21T07:34:39;99553.28;;;9.33;100.00
59475;BME280;45288;51.136;16.928;2023-11-21T07:37:06;99548.72;;;9.24;100.00
59475;BME280;45288;51.136;16.928;2023-11-21T07:39:32;99558.38;;;9.12;100.00
59475;BME280;45288;51.136;16.928;2023-11-21T07:41:58;99555.16;;;9.08;100.00
59475;BME280;45288;51.136;16.928;2023-11-21T07:44:24;99551.25;;;9.25;100.00
59475;BME280;45288;51.136;16.928;2023-11-21T07:46:50;99558.16;;;9.04;100.00
59475;BME280;45288;51.136;16.928;2023-11-21T07:49:16;99559.56;;;9.08;100.00
59475;BME280;45288;51.136;16.928;2023-11-21T07:51:43;99559.31;;;9.11;100.00
59475;BME280;45288;51.136;16.928;2023-11-21T07:54:09;99571.47;;;9.12;100.00
59475;BME280;45288;51.136;16.928;2023-11-21T07:56:36;99560.03;;;9.13;100.00
59475;BME280;45288;51.136;16.928;2023-11-21T07:59:02;99558.72;;;9.07;100.00
59475;BME280;45288;51.136;16.928;2023-11-21T08:01:29;99558.88;;;9.17;100.00
59475;BME280;45288;51.136;16.928;2023-11-21T08:03:56;99556.34;;;9.15;100.00
59475;BME280;45288;51.136;16.928;2023-11-21T08:06:25;99570.16;;;9.06;100.00
59475;BME280;45288;51.136;16.928;2023-11-21T08:08:51;99577.53;;;9.12;100.00
59475;BME280;45288;51.136;16.928;2023-11-21T08:11:18;99572.69;;;9.19;100.00
59475;BME280;45288;51.136;16.928;2023-11-21T08:13:45;99574.69;;;9.15;100.00
59475;BME280;45288;51.136;16.928;2023-11-21T08:16:12;99566.38;;;9.33;100.00
59475;BME280;45288;51.136;16.928;2023-11-21T08:18:38;99574.44;;;9.52;100.00
59475;BME280;45288;51.136;16.928;2023-11-21T08:21:07;99567.31;;;9.54;100.00
59475;BME280;45288;51.136;16.928;2023-11-21T08:23:34;99580.66;;;9.51;100.00
59475;BME280;45288;51.136;16.928;2023-11-21T08:26:01;99584.78;;;9.65;100.00
59475;BME280;45288;51.136;16.928;2023-11-21T08:28:28;99580.53;;;9.53;100.00
59475;BME280;45288;51.136;16.928;2023-11-21T08:30:55;99579.94;;;9.49;100.00
59475;BME280;45288;51.136;16.928;2023-11-21T08:33:21;99581.34;;;9.65;100.00
59475;BME280;45288;51.136;16.928;2023-11-21T08:35:48;99587.56;;;9.64;100.00
59475;BME280;45288;51.136;16.928;2023-11-21T08:38:15;99591.34;;;9.37;100.00
59475;BME280;45288;51.136;16.928;2023-11-21T08:40:41;99582.31;;;9.52;100.00
59475;BME280;45288;51.136;16.928;2023-11-21T08:43:07;99584.81;;;9.54;100.00
59475;BME280;45288;51.136;16.928;2023-11-21T08:45:34;99592.44;;;9.57;100.00
59475;BME280;45288;51.136;16.928;2023-11-21T08:48:00;99587.44;;;9.43;100.00
59475;BME280;45288;51.136;16.928;2023-11-21T08:50:27;99592.44;;;9.34;100.00
59475;BME280;45288;51.136;16.928;2023-11-21T08:52:54;99592.44;;;9.34;100.00
59475;BME280;45288;51.136;16.928;2023-11-21T08:55:21;99582.91;;;9.45;100.00
59475;BME280;45288;51.136;16.928;2023-11-21T08:57:47;99594.13;;;9.24;100.00
59475;BME280;45288;51.136;16.928;2023-11-21T09:00:16;99593.28;;;9.35;100.00
59475;BME280;45288;51.136;16.928;2023-11-21T09:02:43;99584.84;;;9.43;100.00
59475;BME280;45288;51.136;16.928;2023-11-21T09:05:12;99589.34;;;9.41;100.00
59475;BME280;45288;51.136;16.928;2023-11-21T09:07:40;99586.13;;;9.48;100.00
59475;BME280;45288;51.136;16.928;2023-11-21T09:10:08;99587.94;;;9.48;100.00
59475;BME280;45288;51.136;16.928;2023-11-21T09:12:37;99597.44;;;9.60;100.00
59475;BME280;45288;51.136;16.928;2023-11-21T09:15:06;99586.63;;;9.53;100.00
59475;BME280;45288;51.136;16.928;2023-11-21T09:17:32;99596.03;;;9.56;100.00
59475;BME280;45288;51.136;16.928;2023-11-21T09:19:59;99594.00;;;9.48;100.00
59475;BME280;45288;51.136;16.928;2023-11-21T09:22:25;99605.53;;;9.46;100.00
59475;BME280;45288;51.136;16.928;2023-11-21T09:24:52;99605.06;;;9.29;100.00
59475;BME280;45288;51.136;16.928;2023-11-21T09:27:18;99605.53;;;9.23;100.00
59475;BME280;45288;51.136;16.928;2023-11-21T09:29:45;99613.63;;;9.31;100.00
59475;BME280;45288;51.136;16.928;2023-11-21T09:32:14;99609.34;;;9.30;100.00
59475;BME280;45288;51.136;16.928;2023-11-21T09:34:45;99613.03;;;9.28;100.00
59475;BME280;45288;51.136;16.928;2023-11-21T09:37:12;99613.41;;;9.46;100.00
59475;BME280;45288;51.136;16.928;2023-11-21T09:39:40;99610.78;;;9.46;100.00
59475;BME280;45288;51.136;16.928;2023-11-21T09:42:23;99606.84;;;9.29;100.00
59475;BME280;45288;51.136;16.928;2023-11-21T09:45:15;99617.69;;;9.35;100.00
59475;BME280;45288;51.136;16.928;2023-11-21T09:47:45;99612.91;;;9.52;100.00
59475;BME280;45288;51.136;16.928;2023-11-21T09:50:16;99611.38;;;9.49;100.00
59475;BME280;45288;51.136;16.928;2023-11-21T09:55:37;99616.50;;;9.73;100.00
59475;BME280;45288;51.136;16.928;2023-11-21T09:58:04;99616.63;;;9.49;100.00
59475;BME280;45288;51.136;16.928;2023-11-21T10:00:36;99620.19;;;9.37;100.00
59475;BME280;45288;51.136;16.928;2023-11-21T10:03:02;99616.97;;;9.33;100.00
59475;BME280;45288;51.136;16.928;2023-11-21T10:05:31;99622.09;;;9.35;100.00
59475;BME280;45288;51.136;16.928;2023-11-21T10:07:59;99623.06;;;9.45;100.00
59475;BME280;45288;51.136;16.928;2023-11-21T10:10:27;99625.78;;;9.55;100.00
59475;BME280;45288;51.136;16.928;2023-11-21T10:13:01;99616.97;;;9.67;100.00
59475;BME280;45288;51.136;16.928;2023-11-21T10:15:29;99618.75;;;9.67;100.00
59475;BME280;45288;51.136;16.928;2023-11-21T10:17:55;99630.44;;;9.74;100.00
59475;BME280;45288;51.136;16.928;2023-11-21T10:20:23;99621.50;;;9.65;100.00
59475;BME280;45288;51.136;16.928;2023-11-21T10:22:50;99630.66;;;9.59;100.00
59475;BME280;45288;51.136;16.928;2023-11-21T10:25:16;99637.09;;;9.78;100.00
59475;BME280;45288;51.136;16.928;2023-11-21T10:27:47;99630.78;;;9.69;100.00
59475;BME280;45288;51.136;16.928;2023-11-21T10:30:13;99621.13;;;9.70;100.00
59475;BME280;45288;51.136;16.928;2023-11-21T10:32:42;99627.44;;;9.90;100.00
59475;BME280;45288;51.136;16.928;2023-11-21T10:35:10;99620.88;;;9.95;100.00
59475;BME280;45288;51.136;16.928;2023-11-21T10:37:39;99627.34;;;9.57;100.00
59475;BME280;45288;51.136;16.928;2023-11-21T10:40:08;99634.63;;;9.43;100.00
59475;BME280;45288;51.136;16.928;2023-11-21T10:42:39;99636.75;;;9.49;100.00
59475;BME280;45288;51.136;16.928;2023-11-21T10:45:06;99636.03;;;9.35;100.00
59475;BME280;45288;51.136;16.928;2023-11-21T10:47:44;99643.31;;;9.43;100.00
59475;BME280;45288;51.136;16.928;2023-11-21T10:50:09;99645.28;;;9.17;100.00
59475;BME280;45288;51.136;16.928;2023-11-21T10:52:39;99641.41;;;8.87;100.00
59475;BME280;45288;51.136;16.928;2023-11-21T10:55:20;99643.25;;;9.09;100.00
59475;BME280;45288;51.136;16.928;2023-11-21T10:57:52;99641.13;;;9.14;100.00
59475;BME280;45288;51.136;16.928;2023-11-21T11:00:20;99655.72;;;9.06;100.00
59475;BME280;45288;51.136;16.928;2023-11-21T11:02:52;99655.22;;;8.89;100.00
59475;BME280;45288;51.136;16.928;2023-11-21T11:05:24;99664.38;;;8.95;100.00
59475;BME280;45288;51.136;16.928;2023-11-21T11:07:55;99656.13;;;8.77;100.00
59475;BME280;45288;51.136;16.928;2023-11-21T11:10:26;99658.75;;;8.53;100.00
59475;BME280;45288;51.136;16.928;2023-11-21T11:12:53;99658.34;;;8.46;100.00
59475;BME280;45288;51.136;16.928;2023-11-21T11:15:21;99667.41;;;8.29;100.00
59475;BME280;45288;51.136;16.928;2023-11-21T11:17:48;99663.94;;;8.42;100.00
59475;BME280;45288;51.136;16.928;2023-11-21T11:20:16;99654.50;;;8.52;100.00
59475;BME280;45288;51.136;16.928;2023-11-21T11:28:08;99664.59;;;8.20;100.00
59475;BME280;45288;51.136;16.928;2023-11-21T11:33:27;99668.88;;;8.21;100.00
59475;BME280;45288;51.136;16.928;2023-11-21T11:38:45;99678.75;;;8.17;100.00
59475;BME280;45288;51.136;16.928;2023-11-21T11:41:12;99678.69;;;7.93;100.00
59475;BME280;45288;51.136;16.928;2023-11-21T11:43:41;99679.63;;;7.92;100.00
59475;BME280;45288;51.136;16.928;2023-11-21T11:46:11;99684.25;;;7.89;100.00
59475;BME280;45288;51.136;16.928;2023-11-21T11:48:40;99696.38;;;7.77;100.00
59475;BME280;45288;51.136;16.928;2023-11-21T11:51:11;99701.72;;;7.50;100.00
59475;BME280;45288;51.136;16.928;2023-11-21T11:53:41;99692.00;;;7.52;100.00
59475;BME280;45288;51.136;16.928;2023-11-21T11:56:28;99687.53;;;7.54;100.00
59475;BME280;45288;51.136;16.928;2023-11-21T11:59:01;99696.56;;;7.22;100.00
59475;BME280;45288;51.136;16.928;2023-11-21T12:01:28;99694.91;;;7.21;100.00
59475;BME280;45288;51.136;16.928;2023-11-21T12:06:43;99710.84;;;7.04;100.00
59475;BME280;45288;51.136;16.928;2023-11-21T12:09:18;99707.41;;;7.04;100.00
59475;BME280;45288;51.136;16.928;2023-11-21T12:11:46;99705.91;;;6.87;100.00
59475;BME280;45288;51.136;16.928;2023-11-21T12:14:13;99704.63;;;6.80;100.00
59475;BME280;45288;51.136;16.928;2023-11-21T12:16:40;99697.19;;;6.73;100.00
59475;BME280;45288;51.136;16.928;2023-11-21T12:19:06;99712.47;;;6.80;100.00
59475;BME280;45288;51.136;16.928;2023-11-21T12:21:36;99705.75;;;6.75;100.00
59475;BME280;45288;51.136;16.928;2023-11-21T12:24:02;99717.72;;;6.65;100.00
59475;BME280;45288;51.136;16.928;2023-11-21T12:26:28;99715.06;;;6.52;100.00
59475;BME280;45288;51.136;16.928;2023-11-21T12:28:54;99723.72;;;6.53;100.00
59475;BME280;45288;51.136;16.928;2023-11-21T12:31:22;99736.81;;;6.39;100.00
59475;BME280;45288;51.136;16.928;2023-11-21T12:33:47;99733.38;;;6.24;100.00
59475;BME280;45288;51.136;16.928;2023-11-21T12:36:16;99741.13;;;6.11;100.00
59475;BME280;45288;51.136;16.928;2023-11-21T12:38:42;99739.81;;;5.89;100.00
59475;BME280;45288;51.136;16.928;2023-11-21T12:41:10;99740.44;;;5.93;100.00
59475;BME280;45288;51.136;16.928;2023-11-21T12:43:36;99746.34;;;5.97;100.00
59475;BME280;45288;51.136;16.928;2023-11-21T12:46:15;99754.13;;;5.82;100.00
59475;BME280;45288;51.136;16.928;2023-11-21T12:48:43;99755.25;;;5.93;100.00
59475;BME280;45288;51.136;16.928;2023-11-21T12:51:10;99765.69;;;5.78;100.00
59475;BME280;45288;51.136;16.928;2023-11-21T12:53:45;99771.22;;;5.72;100.00
59475;BME280;45288;51.136;16.928;2023-11-21T12:56:13;99780.00;;;5.85;100.00
59475;BME280;45288;51.136;16.928;2023-11-21T12:58:44;99781.72;;;5.56;100.00
59475;BME280;45288;51.136;16.928;2023-11-21T13:01:14;99786.28;;;5.53;100.00
59475;BME280;45288;51.136;16.928;2023-11-21T13:03:48;99789.56;;;5.71;100.00
59475;BME280;45288;51.136;16.928;2023-11-21T13:06:19;99796.69;;;5.53;100.00
59475;BME280;45288;51.136;16.928;2023-11-21T13:08:45;99786.88;;;5.42;100.00
59475;BME280;45288;51.136;16.928;2023-11-21T13:11:12;99796.50;;;5.56;100.00